Time;durP1;ratioP1;P1;durP2;ratioP2;P2;SDS_P1;SDS_P2;PMS_P1;PMS_P2;Temp;Humidity;BMP_temperature;BMP_pressure;BME280_temperature;BME280_humidity;BME280_pressure;Samples;Min_cycle;Max_cycle;Signal;HPM_P1;HPM_P2
2022/09/29 00:01:30;;;;;;;0.30;0.30;;;20.50;68.60;;;;;;5163255;23;20349;-43
2022/09/29 00:03:52;;;;;;;1.00;0.50;;;20.50;68.40;;;;;;5167062;22;20095;-49
2022/09/29 00:06:17;;;;;;;0.65;0.50;;;20.50;68.30;;;;;;5165516;23;20114;-45
2022/09/29 00:08:40;;;;;;;0.40;0.40;;;20.60;68.30;;;;;;5166239;23;20580;-48
2022/09/29 00:11:08;;;;;;;0.45;0.45;;;20.60;68.20;;;;;;5159136;23;20023;-43
2022/09/29 00:13:30;;;;;;;0.93;0.40;;;20.60;68.20;;;;;;5166996;23;20016;-45
2022/09/29 00:16:00;;;;;;;2.83;0.40;;;20.60;68.20;;;;;;5166304;23;20012;-46
2022/09/29 00:18:23;;;;;;;4.53;0.63;;;20.50;68.20;;;;;;5167197;23;20012;-50
2022/09/29 00:20:55;;;;;;;8.05;1.00;;;20.50;68.20;;;;;;5165189;23;20023;-50
2022/09/29 00:23:17;;;;;;;1.63;0.90;;;20.50;67.90;;;;;;5166778;23;20019;-51
2022/09/29 00:25:40;;;;;;;3.90;1.02;;;20.50;67.70;;;;;;5166590;23;20027;-47
2022/09/29 00:28:02;;;;;;;3.03;0.68;;;20.50;67.80;;;;;;5165455;23;20050;-51
2022/09/29 00:30:25;;;;;;;0.93;0.50;;;20.60;67.70;;;;;;5166357;23;20456;-49
2022/09/29 00:32:48;;;;;;;8.02;0.82;;;20.60;67.50;;;;;;5167707;23;20058;-45
2022/09/29 00:35:11;;;;;;;4.47;1.10;;;20.60;67.40;;;;;;5169134;23;20031;-49
2022/09/29 00:37:34;;;;;;;3.13;0.80;;;20.60;67.50;;;;;;5167442;23;20348;-45
2022/09/29 00:39:57;;;;;;;1.42;0.95;;;20.60;67.40;;;;;;5169452;23;20627;-45
2022/09/29 00:42:20;;;;;;;4.57;0.82;;;20.60;67.30;;;;;;5160976;23;20475;-48
2022/09/29 00:45:13;;;;;;;1.95;0.60;;;20.50;67.00;;;;;;5168363;23;20078;-50
2022/09/29 00:47:38;;;;;;;0.70;0.40;;;20.50;67.20;;;;;;5160751;23;20344;-50
2022/09/29 00:50:21;;;;;;;1.77;0.50;;;20.60;67.00;;;;;;5170017;23;20348;-48
2022/09/29 00:52:49;;;;;;;1.15;0.43;;;20.60;67.60;;;;;;5168068;23;20348;-53
2022/09/29 00:55:28;;;;;;;2.60;0.50;;;20.50;66.80;;;;;;5168863;23;20056;-52
2022/09/29 00:57:56;;;;;;;0.75;0.68;;;20.60;66.80;;;;;;5165528;23;20020;-48
2022/09/29 01:00:19;;;;;;;5.05;0.63;;;20.60;66.90;;;;;;5166877;23;20026;-49
2022/09/29 01:02:52;;;;;;;5.00;0.77;;;20.60;66.90;;;;;;5166856;23;20008;-47
2022/09/29 01:05:22;;;;;;;1.45;0.68;;;20.60;66.90;;;;;;5167001;23;20365;-51
2022/09/29 01:07:46;;;;;;;0.25;0.25;;;20.60;67.40;;;;;;5167775;23;20012;-51
2022/09/29 01:10:09;;;;;;;0.60;0.32;;;20.60;66.70;;;;;;5167556;23;20020;-45
2022/09/29 01:12:32;;;;;;;2.28;0.50;;;20.60;66.60;;;;;;5168525;23;20039;-48
2022/09/29 01:14:55;;;;;;;2.35;0.55;;;20.70;66.70;;;;;;5166092;23;20016;-48
2022/09/29 01:17:18;;;;;;;3.15;0.77;;;20.70;66.60;;;;;;5167121;23;20123;-47
2022/09/29 01:19:46;;;;;;;0.30;0.30;;;20.70;66.70;;;;;;5167341;23;20315;-48
2022/09/29 01:22:20;;;;;;;1.15;0.50;;;20.70;66.60;;;;;;5166119;23;20020;-47
2022/09/29 01:24:49;;;;;;;2.10;0.50;;;20.70;66.50;;;;;;5166298;23;20020;-46
2022/09/29 01:27:48;;;;;;;0.95;0.43;;;20.70;66.50;;;;;;5165775;23;20464;-45
2022/09/29 01:30:40;;;;;;;1.52;0.40;;;20.80;66.40;;;;;;5166208;23;20020;-45
2022/09/29 01:33:15;;;;;;;0.75;0.40;;;20.80;66.50;;;;;;5166098;23;20444;-51
2022/09/29 01:35:40;;;;;;;0.45;0.40;;;20.80;66.50;;;;;;5165448;23;20016;-48
2022/09/29 01:38:21;;;;;;;0.30;0.30;;;20.80;66.50;;;;;;5166436;23;20101;-51
2022/09/29 01:41:07;;;;;;;1.17;0.38;;;20.80;66.40;;;;;;5163532;23;20019;-46
2022/09/29 01:43:29;;;;;;;2.75;0.73;;;20.80;66.30;;;;;;5164916;23;20703;-48
2022/09/29 01:46:04;;;;;;;3.53;0.70;;;20.90;66.50;;;;;;5163781;23;20038;-46
2022/09/29 01:48:32;;;;;;;2.72;0.68;;;20.90;66.50;;;;;;5169010;23;20012;-52
2022/09/29 01:51:00;;;;;;;2.38;0.90;;;20.90;66.70;;;;;;5167501;23;20094;-48
2022/09/29 01:53:49;;;;;;;6.22;1.30;;;21.00;67.30;;;;;;5167302;23;20449;-52
2022/09/29 01:56:28;;;;;;;7.13;1.85;;;21.00;67.40;;;;;;5167340;23;20093;-51
2022/09/29 01:58:56;;;;;;;6.13;0.82;;;21.10;67.50;;;;;;5168531;23;20051;-46
2022/09/29 02:01:23;;;;;;;5.38;0.70;;;21.10;67.70;;;;;;5168265;23;20016;-49
2022/09/29 02:04:01;;;;;;;4.25;1.15;;;21.20;67.70;;;;;;5166631;22;20345;-45
2022/09/29 02:06:39;;;;;;;1.45;0.50;;;21.10;67.30;;;;;;5165935;23;20016;-50
2022/09/29 02:09:07;;;;;;;4.63;0.90;;;21.20;67.20;;;;;;5157748;23;20048;-52
2022/09/29 02:11:32;;;;;;;4.97;1.45;;;21.10;67.60;;;;;;5167101;23;20012;-47
2022/09/29 02:13:58;;;;;;;10.77;1.23;;;21.20;68.00;;;;;;5165754;23;20392;-44
2022/09/29 02:16:29;;;;;;;4.88;1.23;;;21.20;68.20;;;;;;5158690;23;20016;-50
2022/09/29 02:19:22;;;;;;;3.22;1.02;;;21.20;68.30;;;;;;5167512;23;20423;-47
2022/09/29 02:21:45;;;;;;;4.13;0.80;;;21.30;68.10;;;;;;5137915;23;20016;-46
2022/09/29 02:24:07;;;;;;;3.58;0.80;;;21.40;68.10;;;;;;5167463;23;20440;-51
2022/09/29 02:26:34;;;;;;;4.00;1.13;;;21.40;67.80;;;;;;5168821;23;20103;-47
2022/09/29 02:28:57;;;;;;;2.92;0.68;;;21.40;67.70;;;;;;5168006;23;20023;-47
2022/09/29 02:31:21;;;;;;;4.53;0.57;;;21.50;67.40;;;;;;5166903;23;20087;-45
2022/09/29 02:33:43;;;;;;;0.50;0.50;;;21.50;67.40;;;;;;5166250;23;20023;-46
2022/09/29 02:36:12;;;;;;;1.05;0.65;;;21.50;67.30;;;;;;5165451;23;20074;-47
2022/09/29 02:39:02;;;;;;;1.42;0.60;;;21.50;67.20;;;;;;5156866;23;20016;-44
2022/09/29 02:42:06;;;;;;;1.33;0.40;;;21.50;67.20;;;;;;5165503;23;20333;-48
2022/09/29 02:44:43;;;;;;;1.13;0.50;;;21.60;67.20;;;;;;5117629;23;20012;-45
2022/09/29 02:47:21;;;;;;;1.90;0.60;;;21.60;67.10;;;;;;5165928;23;20045;-44
2022/09/29 02:50:00;;;;;;;0.50;0.50;;;21.60;67.00;;;;;;5165643;23;20012;-45
2022/09/29 02:52:54;;;;;;;2.35;0.68;;;21.60;66.80;;;;;;5165895;23;20208;-45
2022/09/29 02:55:29;;;;;;;0.30;0.30;;;21.70;66.80;;;;;;5167747;23;20072;-45
2022/09/29 02:58:28;;;;;;;1.55;0.40;;;21.70;66.90;;;;;;5169097;23;20081;-45
2022/09/29 03:00:52;;;;;;;2.15;0.60;;;21.70;66.90;;;;;;5168776;23;20137;-45
2022/09/29 03:03:14;;;;;;;;;;;21.70;66.80;;;;;;5168738;22;20008;-45
2022/09/29 03:05:37;;;;;;;1.40;0.50;;;21.70;66.70;;;;;;5166167;23;20006;-47
2022/09/29 03:07:59;;;;;;;0.47;0.40;;;21.80;66.60;;;;;;5171567;23;20508;-46
2022/09/29 03:10:22;;;;;;;1.65;0.32;;;21.80;66.50;;;;;;5172510;23;20075;-48
2022/09/29 03:12:46;;;;;;;1.52;0.35;;;21.90;66.60;;;;;;5171895;23;20008;-44
2022/09/29 03:15:10;;;;;;;;;;;21.90;66.60;;;;;;5172201;23;20105;-46
2022/09/29 03:17:33;;;;;;;1.88;0.50;;;21.90;66.60;;;;;;5162099;23;20310;-45
2022/09/29 03:19:56;;;;;;;1.83;0.60;;;21.90;66.50;;;;;;5168651;23;20352;-46
2022/09/29 03:22:19;;;;;;;0.85;0.50;;;21.90;66.50;;;;;;5160177;23;20034;-49
2022/09/29 03:24:42;;;;;;;0.73;0.40;;;22.00;66.40;;;;;;5158488;23;20027;-47
2022/09/29 03:27:05;;;;;;;0.45;0.40;;;22.00;66.40;;;;;;5167001;23;20016;-46
2022/09/29 03:29:27;;;;;;;1.42;0.43;;;22.00;66.40;;;;;;5158471;23;20040;-47
2022/09/29 03:31:50;;;;;;;0.63;0.45;;;22.00;66.30;;;;;;5168284;23;20107;-45
2022/09/29 03:34:12;;;;;;;0.50;0.38;;;22.10;66.20;;;;;;5168700;23;20012;-50
2022/09/29 03:36:35;;;;;;;0.77;0.50;;;22.00;66.20;;;;;;5169133;23;20065;-45
2022/09/29 03:38:57;;;;;;;2.85;0.65;;;22.10;66.20;;;;;;5169431;23;20016;-46
2022/09/29 03:41:20;;;;;;;0.85;0.40;;;22.10;66.20;;;;;;5169371;23;20306;-49
2022/09/29 03:43:43;;;;;;;2.40;0.40;;;22.20;66.00;;;;;;5169114;23;20016;-46
2022/09/29 03:46:05;;;;;;;1.02;0.38;;;22.20;66.00;;;;;;5169457;23;20074;-50
2022/09/29 03:48:30;;;;;;;0.38;0.22;;;22.20;66.00;;;;;;5161739;23;20012;-49
2022/09/29 03:50:53;;;;;;;1.48;0.47;;;22.20;66.00;;;;;;5168436;23;20741;-47
2022/09/29 03:53:16;;;;;;;1.00;0.50;;;22.20;66.10;;;;;;5159776;23;20047;-48
2022/09/29 03:55:39;;;;;;;0.93;0.50;;;22.10;66.10;;;;;;5168376;23;20522;-51
2022/09/29 03:58:01;;;;;;;1.38;0.68;;;22.20;66.20;;;;;;5168850;23;20329;-50
2022/09/29 04:00:24;;;;;;;1.33;0.43;;;22.20;66.20;;;;;;5168940;23;20233;-45
2022/09/29 04:02:47;;;;;;;5.22;0.40;;;22.10;66.20;;;;;;5169002;23;20058;-46
2022/09/29 04:05:09;;;;;;;1.45;0.50;;;22.20;66.40;;;;;;5167606;23;20016;-46
2022/09/29 04:07:32;;;;;;;8.15;0.75;;;22.20;66.50;;;;;;5167803;23;20353;-46
2022/09/29 04:09:54;;;;;;;0.50;0.40;;;22.20;66.30;;;;;;5168233;23;20468;-46
2022/09/29 04:12:17;;;;;;;2.72;0.60;;;22.30;66.20;;;;;;5168648;23;20501;-47
2022/09/29 04:14:39;;;;;;;2.47;0.40;;;22.40;65.90;;;;;;5167449;23;20443;-46
2022/09/29 04:17:02;;;;;;;1.00;0.85;;;22.40;65.90;;;;;;5168082;23;20040;-50
2022/09/29 04:19:25;;;;;;;6.18;0.75;;;22.50;65.80;;;;;;5166895;23;20088;-60
2022/09/29 04:21:47;;;;;;;8.45;0.80;;;22.50;65.70;;;;;;5166322;23;20023;-46
2022/09/29 04:24:10;;;;;;;2.30;0.77;;;22.40;65.60;;;;;;5167144;23;20048;-50
2022/09/29 04:26:33;;;;;;;2.38;0.80;;;22.40;65.70;;;;;;5166451;23;20027;-46
2022/09/29 04:28:56;;;;;;;1.65;0.60;;;22.40;65.70;;;;;;5158795;23;20102;-54
2022/09/29 04:31:18;;;;;;;3.83;0.52;;;22.40;65.70;;;;;;5158889;23;20016;-48
2022/09/29 04:33:41;;;;;;;2.47;0.70;;;22.40;65.90;;;;;;5167755;23;20012;-51
2022/09/29 04:36:04;;;;;;;1.70;0.47;;;22.40;66.00;;;;;;5166071;23;20513;-50
2022/09/29 04:38:27;;;;;;;2.53;0.50;;;22.30;66.00;;;;;;5136127;23;20020;-52
2022/09/29 04:40:49;;;;;;;3.10;0.70;;;22.30;66.10;;;;;;5166671;23;20085;-49
2022/09/29 04:43:12;;;;;;;2.20;0.47;;;22.40;66.10;;;;;;5167473;23;20046;-49
2022/09/29 04:45:34;;;;;;;2.40;0.70;;;22.30;66.10;;;;;;5167107;23;20059;-50
2022/09/29 04:47:57;;;;;;;12.23;0.95;;;22.30;66.00;;;;;;5167521;23;20023;-51
2022/09/29 04:50:19;;;;;;;1.35;0.55;;;22.30;65.90;;;;;;5167883;23;20107;-53
2022/09/29 04:52:45;;;;;;;2.00;0.93;;;22.30;65.90;;;;;;5168589;23;20043;-47
2022/09/29 04:55:12;;;;;;;11.40;1.45;;;22.30;65.90;;;;;;5133936;23;20020;-50
2022/09/29 04:57:35;;;;;;;2.50;0.95;;;22.30;66.10;;;;;;5134564;23;20027;-48
2022/09/29 04:59:58;;;;;;;2.35;0.77;;;22.30;66.20;;;;;;5141415;23;20017;-50
2022/09/29 05:02:21;;;;;;;7.50;0.70;;;22.40;66.40;;;;;;5141061;23;20020;-50
2022/09/29 05:04:43;;;;;;;3.25;0.80;;;22.40;66.60;;;;;;5141695;23;20016;-47
2022/09/29 05:07:06;;;;;;;6.07;0.70;;;22.40;66.70;;;;;;5140479;23;20431;-51
2022/09/29 05:09:28;;;;;;;3.75;0.73;;;22.30;66.80;;;;;;5140941;23;20044;-49
2022/09/29 05:11:51;;;;;;;3.55;0.95;;;22.40;66.80;;;;;;5141361;23;20063;-46
2022/09/29 05:14:13;;;;;;;3.47;0.80;;;22.40;66.80;;;;;;5141227;23;20400;-48
2022/09/29 05:16:36;;;;;;;1.73;0.70;;;22.40;66.80;;;;;;5141200;23;20016;-48
2022/09/29 05:18:59;;;;;;;7.55;0.93;;;22.40;66.80;;;;;;5142522;23;20012;-48
2022/09/29 05:21:22;;;;;;;1.83;0.50;;;22.40;66.70;;;;;;5141927;23;20099;-47
2022/09/29 05:23:45;;;;;;;5.03;0.73;;;22.40;66.80;;;;;;5141645;23;20246;-47
2022/09/29 05:26:08;;;;;;;3.47;0.90;;;22.30;66.90;;;;;;5113740;23;20143;-46
2022/09/29 05:28:31;;;;;;;3.10;0.63;;;22.30;66.90;;;;;;5139597;23;20532;-46
2022/09/29 05:30:53;;;;;;;5.00;0.85;;;22.30;66.90;;;;;;5142145;23;20017;-47
2022/09/29 05:33:16;;;;;;;6.15;1.05;;;22.30;66.90;;;;;;5141572;23;20017;-53
2022/09/29 05:35:39;;;;;;;5.63;1.10;;;22.30;66.90;;;;;;5141198;23;20071;-45
2022/09/29 05:38:01;;;;;;;2.20;0.80;;;22.40;66.90;;;;;;5141096;23;20104;-48
2022/09/29 05:40:24;;;;;;;7.95;0.88;;;22.50;66.60;;;;;;5143681;23;20345;-51
2022/09/29 05:42:47;;;;;;;3.80;1.17;;;22.60;65.60;;;;;;5135667;23;20012;-50
2022/09/29 05:45:10;;;;;;;4.22;0.90;;;22.50;64.60;;;;;;5143843;23;20099;-49
2022/09/29 05:47:33;;;;;;;5.97;1.42;;;22.50;64.30;;;;;;5136385;23;20445;-51
2022/09/29 05:49:56;;;;;;;3.97;1.13;;;22.40;64.30;;;;;;5132648;23;20070;-54
2022/09/29 05:52:18;;;;;;;1.52;0.77;;;22.40;64.40;;;;;;5135567;23;20294;-51
2022/09/29 05:54:41;;;;;;;4.63;1.20;;;22.30;64.50;;;;;;5155009;23;20024;-50
2022/09/29 05:57:03;;;;;;;3.05;1.17;;;22.30;64.40;;;;;;5160002;23;20016;-54
2022/09/29 05:59:26;;;;;;;3.15;0.93;;;22.30;64.50;;;;;;5160015;23;20409;-46
2022/09/29 06:01:49;;;;;;;2.03;1.02;;;22.20;64.50;;;;;;5159479;23;20449;-45
2022/09/29 06:04:11;;;;;;;3.58;1.15;;;22.20;65.50;;;;;;5158249;22;20019;-48
2022/09/29 06:06:35;;;;;;;2.60;0.80;;;22.20;66.00;;;;;;5160701;23;20414;-50
2022/09/29 06:08:58;;;;;;;;;;;22.20;66.30;;;;;;5151509;23;20042;-47
2022/09/29 06:11:23;;;;;;;2.00;0.75;;;22.20;66.50;;;;;;5160854;23;19994;-48
2022/09/29 06:13:48;;;;;;;4.70;0.77;;;22.20;66.60;;;;;;5158289;23;20016;-46
2022/09/29 06:16:11;;;;;;;2.15;0.90;;;22.20;66.60;;;;;;5159485;23;20043;-49
2022/09/29 06:18:34;;;;;;;17.30;1.88;;;22.20;66.80;;;;;;5157888;23;20019;-52
2022/09/29 06:21:11;;;;;;;10.33;1.33;;;22.20;67.00;;;;;;5156557;23;20027;-49
2022/09/29 06:23:35;;;;;;;2.58;0.82;;;22.20;67.00;;;;;;5156083;23;20087;-50
2022/09/29 06:26:03;;;;;;;4.45;1.40;;;22.20;67.10;;;;;;5126399;23;20536;-51
2022/09/29 06:28:25;;;;;;;5.57;0.88;;;22.10;67.20;;;;;;5149688;23;20437;-50
2022/09/29 06:30:48;;;;;;;2.40;1.00;;;22.10;67.20;;;;;;5160043;23;20037;-49
2022/09/29 06:33:11;;;;;;;4.68;1.05;;;22.10;67.30;;;;;;5158873;23;20012;-56
2022/09/29 06:38:14;;;;;;;4.88;1.10;;;22.10;67.60;;;;;;5162320;23;20344;-48
2022/09/29 06:40:36;;;;;;;5.18;0.93;;;22.10;67.90;;;;;;5150902;23;20030;-46
2022/09/29 06:43:00;;;;;;;6.28;0.93;;;22.10;68.00;;;;;;5162102;23;20012;-46
2022/09/29 06:45:22;;;;;;;4.47;0.88;;;22.10;68.00;;;;;;5158848;23;20024;-47
2022/09/29 06:47:45;;;;;;;4.72;1.35;;;22.10;67.80;;;;;;5158148;23;20012;-47
2022/09/29 06:50:08;;;;;;;5.75;1.25;;;22.10;67.70;;;;;;5156765;23;20022;-51
2022/09/29 06:52:31;;;;;;;4.90;1.00;;;22.10;67.70;;;;;;5150006;23;20470;-47
2022/09/29 06:54:53;;;;;;;4.50;1.10;;;22.10;67.70;;;;;;5156692;23;20395;-46
2022/09/29 06:57:17;;;;;;;4.78;1.10;;;22.10;67.70;;;;;;5157871;23;20023;-48
2022/09/29 06:59:40;;;;;;;4.72;0.93;;;22.10;67.60;;;;;;5148403;23;20066;-51
2022/09/29 07:02:03;;;;;;;3.80;1.27;;;22.10;67.60;;;;;;5161292;23;20016;-53
2022/09/29 07:04:26;;;;;;;7.75;1.50;;;22.10;67.60;;;;;;5165360;22;20464;-50
2022/09/29 07:06:49;;;;;;;4.70;1.55;;;22.10;67.90;;;;;;5164120;23;20016;-50
2022/09/29 07:09:14;;;;;;;4.75;0.95;;;22.10;68.00;;;;;;5164237;23;20016;-47
2022/09/29 07:11:39;;;;;;;3.35;1.15;;;22.10;67.90;;;;;;5164707;23;20012;-48
2022/09/29 07:14:01;;;;;;;4.72;1.15;;;22.10;68.00;;;;;;5157683;23;20537;-51
2022/09/29 07:16:24;;;;;;;4.43;0.93;;;22.10;67.90;;;;;;5165074;23;20019;-55
2022/09/29 07:18:47;;;;;;;3.95;1.15;;;22.10;68.00;;;;;;5133406;23;20016;-49
2022/09/29 07:21:14;;;;;;;6.93;1.67;;;22.10;68.00;;;;;;5134836;23;20523;-46
2022/09/29 07:23:38;;;;;;;4.60;1.17;;;22.10;68.10;;;;;;5158774;23;20016;-46
2022/09/29 07:26:00;;;;;;;5.40;1.33;;;22.10;68.30;;;;;;5162394;23;20098;-46
2022/09/29 07:28:23;;;;;;;7.35;0.98;;;22.10;68.20;;;;;;5166564;23;20087;-47
2022/09/29 07:30:46;;;;;;;2.97;1.02;;;22.10;68.10;;;;;;5159792;23;20122;-44
2022/09/29 07:33:09;;;;;;;4.35;1.38;;;22.10;68.10;;;;;;5164395;23;20008;-45
2022/09/29 07:35:31;;;;;;;4.90;1.40;;;22.10;68.00;;;;;;5171202;23;20091;-52
2022/09/29 07:37:54;;;;;;;5.28;1.38;;;22.10;68.20;;;;;;5171970;23;20027;-44
2022/09/29 07:40:17;;;;;;;3.05;0.90;;;22.10;68.20;;;;;;5169635;23;20099;-47
2022/09/29 07:42:39;;;;;;;4.40;1.10;;;22.10;68.20;;;;;;5165529;23;20016;-47
2022/09/29 07:45:02;;;;;;;4.72;1.23;;;22.10;68.00;;;;;;5165654;23;20020;-47
2022/09/29 07:47:25;;;;;;;2.38;1.00;;;22.10;68.00;;;;;;5167177;23;20016;-44
2022/09/29 07:49:47;;;;;;;4.30;1.40;;;22.10;68.00;;;;;;5165924;23;20091;-46
2022/09/29 07:52:11;;;;;;;4.40;1.23;;;22.10;68.10;;;;;;5158364;23;20441;-46
2022/09/29 07:54:34;;;;;;;4.22;1.30;;;22.10;68.20;;;;;;5167708;23;20078;-48
2022/09/29 07:56:59;;;;;;;2.97;1.23;;;22.10;68.10;;;;;;5164283;23;20469;-48
2022/09/29 07:59:22;;;;;;;4.30;1.50;;;22.10;67.90;;;;;;5132184;23;20016;-47
2022/09/29 08:01:45;;;;;;;3.67;1.27;;;22.10;67.70;;;;;;5163383;23;20082;-47
2022/09/29 08:04:08;;;;;;;2.97;1.17;;;22.10;67.70;;;;;;5164625;22;20016;-51
2022/09/29 08:06:30;;;;;;;6.53;1.70;;;22.10;67.90;;;;;;5165070;23;20024;-51
2022/09/29 08:08:53;;;;;;;3.20;1.02;;;22.10;67.90;;;;;;5163839;23;20016;-55
2022/09/29 08:11:19;;;;;;;4.00;1.20;;;22.10;67.80;;;;;;5165189;23;20436;-50
2022/09/29 08:13:42;;;;;;;3.03;1.20;;;22.00;67.70;;;;;;5165164;23;20597;-46
2022/09/29 08:16:07;;;;;;;3.42;1.08;;;22.00;67.70;;;;;;5165031;23;20104;-48
2022/09/29 08:18:30;;;;;;;1.95;1.25;;;22.00;67.60;;;;;;5165844;23;20020;-45
2022/09/29 08:20:53;;;;;;;4.85;1.73;;;22.00;67.80;;;;;;5166128;23;20553;-48
2022/09/29 08:23:15;;;;;;;4.45;1.55;;;22.00;67.70;;;;;;5168346;23;20070;-48
2022/09/29 08:25:38;;;;;;;3.85;1.20;;;22.00;67.70;;;;;;5164943;23;20030;-50
2022/09/29 08:28:01;;;;;;;3.05;1.00;;;22.00;67.60;;;;;;5167021;23;20012;-49
2022/09/29 08:30:24;;;;;;;2.42;1.00;;;22.00;67.60;;;;;;5167560;23;20039;-51
2022/09/29 08:32:53;;;;;;;3.33;1.13;;;22.00;67.60;;;;;;5168727;23;20097;-52
2022/09/29 08:35:16;;;;;;;3.78;1.13;;;22.00;67.50;;;;;;5168216;23;20020;-48
2022/09/29 08:37:39;;;;;;;4.03;1.33;;;22.00;67.40;;;;;;5169344;23;20012;-46
2022/09/29 08:40:01;;;;;;;3.40;1.15;;;22.00;67.40;;;;;;5168836;23;20123;-46
2022/09/29 08:42:33;;;;;;;2.80;1.30;;;22.00;67.50;;;;;;5136808;23;20023;-48
2022/09/29 08:45:01;;;;;;;4.05;1.40;;;22.00;67.50;;;;;;5168728;23;20019;-51
2022/09/29 08:47:34;;;;;;;5.82;1.17;;;22.00;67.60;;;;;;5159401;23;20099;-51
2022/09/29 08:50:24;;;;;;;2.53;0.95;;;22.00;67.60;;;;;;5158370;23;20081;-49
2022/09/29 08:52:53;;;;;;;4.78;1.85;;;22.00;67.50;;;;;;5169468;23;20050;-49
2022/09/29 08:55:16;;;;;;;7.63;2.13;;;21.90;65.70;;;;;;5168105;23;20027;-46
2022/09/29 08:57:39;;;;;;;9.43;1.90;;;21.90;65.40;;;;;;5168997;23;20024;-47
2022/09/29 09:00:02;;;;;;;4.10;1.50;;;21.90;65.90;;;;;;5169790;23;20041;-49
2022/09/29 09:02:39;;;;;;;5.07;1.60;;;21.90;66.20;;;;;;5160551;23;20065;-47
2022/09/29 09:05:18;;;;;;;4.63;1.70;;;21.80;66.40;;;;;;5168054;23;20070;-46
2022/09/29 09:07:55;;;;;;;3.55;1.75;;;21.80;66.60;;;;;;5161972;23;20074;-48
2022/09/29 09:11:00;;;;;;;3.15;1.52;;;21.80;66.60;;;;;;5165564;23;20457;-50
2022/09/29 09:13:52;;;;;;;5.78;1.55;;;21.80;66.60;;;;;;5157736;23;20065;-46
2022/09/29 09:16:20;;;;;;;5.00;1.35;;;21.80;66.80;;;;;;5157912;23;20074;-47
2022/09/29 09:18:59;;;;;;;5.28;1.48;;;21.70;66.80;;;;;;5150679;23;20062;-51
2022/09/29 09:21:41;;;;;;;5.03;1.63;;;21.70;66.80;;;;;;5149207;23;20020;-48
2022/09/29 09:24:35;;;;;;;4.65;1.50;;;21.70;66.90;;;;;;5157466;23;20023;-45
2022/09/29 09:26:59;;;;;;;3.70;0.93;;;21.70;67.00;;;;;;5109192;23;20052;-48
2022/09/29 09:29:39;;;;;;;4.05;1.67;;;21.70;67.10;;;;;;5165494;23;20015;-47
2022/09/29 09:32:14;;;;;;;3.47;1.48;;;21.70;67.20;;;;;;5167004;23;20016;-49
2022/09/29 09:34:36;;;;;;;4.72;1.30;;;21.70;67.20;;;;;;5141899;23;20012;-48
2022/09/29 09:37:05;;;;;;;7.28;2.38;;;21.70;67.20;;;;;;5165021;23;20040;-48
2022/09/29 09:39:47;;;;;;;7.15;2.95;;;21.60;66.50;;;;;;5165176;23;20027;-49
2022/09/29 09:42:25;;;;;;;11.07;3.78;;;21.60;65.90;;;;;;5162342;23;20060;-53
2022/09/29 09:44:56;;;;;;;8.27;3.58;;;21.60;66.10;;;;;;5162268;23;20034;-51
2022/09/29 09:47:24;;;;;;;6.68;3.15;;;21.50;66.20;;;;;;5164760;23;20023;-51
2022/09/29 09:49:51;;;;;;;6.80;2.83;;;21.50;66.20;;;;;;5155991;23;20012;-49
2022/09/29 09:52:38;;;;;;;6.88;2.83;;;21.50;66.40;;;;;;5162401;23;20016;-51
2022/09/29 09:55:05;;;;;;;6.00;2.88;;;21.50;66.40;;;;;;5163266;23;20090;-50
2022/09/29 09:57:33;;;;;;;6.10;2.67;;;21.40;66.50;;;;;;5153639;23;20082;-52
2022/09/29 10:00:22;;;;;;;5.88;2.72;;;21.40;66.50;;;;;;5162058;23;20012;-55
2022/09/29 10:02:54;;;;;;;5.45;2.15;;;21.30;66.50;;;;;;5162246;23;20095;-51
2022/09/29 10:05:23;;;;;;;5.57;2.10;;;21.30;66.60;;;;;;5163574;23;20012;-49
2022/09/29 10:07:49;;;;;;;5.10;2.42;;;21.30;66.60;;;;;;5153349;23;20028;-50
2022/09/29 10:10:21;;;;;;;5.45;2.10;;;21.30;66.60;;;;;;5159432;23;20081;-56
2022/09/29 10:12:44;;;;;;;6.40;2.47;;;21.20;66.50;;;;;;5152644;23;20142;-47
2022/09/29 10:15:41;;;;;;;5.47;2.38;;;21.20;66.60;;;;;;5161299;23;20474;-47
2022/09/29 10:18:24;;;;;;;8.75;2.28;;;21.20;67.00;;;;;;5151436;23;20032;-48
2022/09/29 10:20:47;;;;;;;4.05;2.03;;;21.20;67.20;;;;;;5126147;23;20099;-46
2022/09/29 10:23:26;;;;;;;7.35;2.45;;;21.20;67.50;;;;;;5162704;23;20062;-48
2022/09/29 10:26:09;;;;;;;3.78;1.58;;;21.20;67.70;;;;;;5153702;23;20034;-46
2022/09/29 10:29:00;;;;;;;7.10;1.92;;;21.20;67.80;;;;;;5166001;23;20452;-52
2022/09/29 10:31:36;;;;;;;5.50;1.85;;;21.20;67.80;;;;;;5165391;23;20023;-47
2022/09/29 10:34:22;;;;;;;4.47;1.50;;;21.20;68.00;;;;;;5165090;23;20023;-47
2022/09/29 10:36:58;;;;;;;3.72;1.67;;;21.10;67.90;;;;;;5162246;23;20070;-49
2022/09/29 10:39:42;;;;;;;7.80;1.38;;;21.10;68.00;;;;;;5165008;23;20027;-50
2022/09/29 10:42:24;;;;;;;2.38;1.23;;;21.10;67.90;;;;;;5154548;23;20046;-49
2022/09/29 10:45:12;;;;;;;3.08;1.10;;;21.10;68.20;;;;;;5165699;23;20008;-46
2022/09/29 10:47:36;;;;;;;4.22;1.25;;;21.10;68.20;;;;;;5153822;23;20530;-47
2022/09/29 10:50:17;;;;;;;5.45;1.63;;;21.10;68.30;;;;;;5165424;23;20405;-46
2022/09/29 10:53:01;;;;;;;4.22;1.35;;;21.10;68.30;;;;;;5155341;23;20099;-48
2022/09/29 10:55:28;;;;;;;3.10;1.10;;;21.00;68.40;;;;;;5165871;23;20398;-49
2022/09/29 10:57:54;;;;;;;3.58;1.30;;;21.10;68.50;;;;;;5134054;23;20029;-49
2022/09/29 11:00:31;;;;;;;2.78;1.20;;;21.00;68.40;;;;;;5166026;23;20016;-49
2022/09/29 11:03:20;;;;;;;5.55;1.17;;;21.00;68.60;;;;;;5164643;23;20039;-47
2022/09/29 11:06:02;;;;;;;3.53;1.30;;;21.00;68.60;;;;;;5162627;23;20534;-47
2022/09/29 11:08:26;;;;;;;4.10;1.55;;;21.00;68.70;;;;;;5164962;23;20023;-48
2022/09/29 11:10:49;;;;;;;5.30;1.60;;;21.00;68.80;;;;;;5165174;23;20019;-46
2022/09/29 11:13:23;;;;;;;3.15;1.42;;;21.00;68.70;;;;;;5164873;23;20464;-47
2022/09/29 11:15:46;;;;;;;6.40;1.40;;;21.00;68.70;;;;;;5164011;23;20427;-46
2022/09/29 11:18:27;;;;;;;5.55;1.30;;;20.90;68.70;;;;;;5165165;23;20066;-49
2022/09/29 11:20:58;;;;;;;2.75;1.08;;;20.90;68.70;;;;;;5162313;23;20016;-50
2022/09/29 11:23:34;;;;;;;3.70;1.27;;;20.90;68.70;;;;;;5166148;23;20016;-48
2022/09/29 11:26:53;;;;;;;3.45;0.90;;;20.90;68.60;;;;;;5163105;23;20116;-49
2022/09/29 11:29:54;;;;;;;3.22;1.33;;;20.90;68.60;;;;;;5075789;23;20200;-51
2022/09/29 11:32:50;;;;;;;5.32;1.63;;;20.80;67.60;;;;;;5142297;23;20096;-44
2022/09/29 11:35:38;;;;;;;5.50;1.40;;;20.80;67.70;;;;;;5161568;23;20016;-47
2022/09/29 11:38:28;;;;;;;3.50;1.27;;;20.80;67.80;;;;;;5157175;23;20099;-44
2022/09/29 11:41:02;;;;;;;3.80;1.25;;;20.80;67.90;;;;;;5166364;23;20028;-51
2022/09/29 11:43:36;;;;;;;2.85;1.02;;;20.90;68.20;;;;;;5167018;23;20588;-47
2022/09/29 11:46:11;;;;;;;;;;;20.80;68.30;;;;;;5144709;23;20032;-46
2022/09/29 11:48:53;;;;;;;4.40;1.40;;;20.80;68.40;;;;;;5158485;23;19911;-49
2022/09/29 11:51:28;;;;;;;2.78;1.05;;;20.90;68.50;;;;;;5166513;23;20590;-44
2022/09/29 11:54:56;;;;;;;3.90;1.13;;;20.90;68.50;;;;;;5158027;23;20063;-48
2022/09/29 11:57:38;;;;;;;3.40;1.00;;;20.90;68.50;;;;;;5057444;23;20307;-45
2022/09/29 12:00:10;;;;;;;2.63;1.15;;;20.90;68.50;;;;;;5159654;23;20020;-47
2022/09/29 12:02:56;;;;;;;1.20;0.65;;;20.90;68.70;;;;;;5160598;23;20051;-45
2022/09/29 12:06:00;;;;;;;2.35;1.08;;;20.90;68.60;;;;;;5157776;23;20334;-44
2022/09/29 12:08:52;;;;;;;2.97;1.02;;;20.90;68.50;;;;;;5168257;23;20071;-44
2022/09/29 12:11:24;;;;;;;2.20;0.80;;;20.90;68.60;;;;;;5160080;23;20105;-44
2022/09/29 12:13:52;;;;;;;2.95;0.95;;;21.00;68.50;;;;;;5169481;23;20012;-44
2022/09/29 12:16:19;;;;;;;2.45;0.93;;;20.90;68.40;;;;;;5168413;23;20027;-45
2022/09/29 12:18:58;;;;;;;2.13;0.82;;;20.90;68.40;;;;;;5171561;23;20004;-46
2022/09/29 12:21:44;;;;;;;2.40;1.08;;;20.90;68.30;;;;;;5172088;23;20016;-44
2022/09/29 12:24:25;;;;;;;1.60;0.77;;;20.90;68.40;;;;;;5159478;23;20043;-43
2022/09/29 12:26:49;;;;;;;3.92;0.75;;;20.90;68.40;;;;;;5167895;23;20055;-44
2022/09/29 12:29:41;;;;;;;1.73;0.95;;;20.90;68.40;;;;;;5164050;23;20012;-43
2022/09/29 12:32:22;;;;;;;3.13;1.00;;;20.90;68.30;;;;;;5167650;23;20012;-45
2022/09/29 12:35:04;;;;;;;3.13;1.08;;;20.90;68.40;;;;;;5164940;23;20016;-44
2022/09/29 12:37:33;;;;;;;3.40;1.05;;;21.00;68.40;;;;;;5166704;23;20012;-46
2022/09/29 12:40:11;;;;;;;3.75;0.65;;;21.00;68.20;;;;;;5166247;23;20614;-46
2022/09/29 12:42:40;;;;;;;2.40;0.98;;;21.00;68.10;;;;;;5168050;23;20416;-44
2022/09/29 12:45:18;;;;;;;2.22;0.93;;;21.00;68.70;;;;;;5167733;23;20066;-44
2022/09/29 12:47:44;;;;;;;4.00;0.90;;;21.00;68.10;;;;;;5166987;23;20015;-44
2022/09/29 12:50:29;;;;;;;5.22;1.13;;;21.00;68.00;;;;;;5165936;23;20020;-48
2022/09/29 12:53:01;;;;;;;2.67;0.93;;;21.00;68.00;;;;;;5157824;23;20082;-45
2022/09/29 12:55:53;;;;;;;3.53;1.10;;;21.00;67.80;;;;;;5132286;23;20091;-47
2022/09/29 12:58:25;;;;;;;5.28;1.33;;;21.00;67.80;;;;;;5141788;23;20353;-45
2022/09/29 13:00:55;;;;;;;3.85;1.38;;;21.00;66.40;;;;;;5142414;23;20027;-45
2022/09/29 13:03:31;;;;;;;4.28;1.50;;;21.00;66.40;;;;;;5112615;23;20028;-46